createdAt,value
2022-09-05T00:01:03.356Z,-23701.75
2022-09-05T00:03:19.630Z,-23700.81
2022-09-05T00:06:03.054Z,-23700.66
2022-09-05T00:08:13.431Z,-23700.81
2022-09-05T00:10:23.513Z,-23702.06
2022-09-05T00:12:28.403Z,-23701.91
2022-09-05T00:15:14.771Z,-23702.38
2022-09-05T00:17:34.265Z,-23700.50
2022-09-05T00:24:20.721Z,-23698.59
2022-09-05T00:24:24.987Z,-23697.34
2022-09-05T00:25:30.396Z,-23696.41
2022-09-05T00:27:40.710Z,-23692.94
2022-09-05T00:31:08.223Z,-23691.34
2022-09-05T00:32:43.853Z,-23691.69
2022-09-05T00:35:02.232Z,-23689.63
2022-09-05T00:37:06.303Z,-23692.31
2022-09-05T00:39:14.448Z,-23693.09
2022-09-05T00:41:19.106Z,-23692.47
2022-09-05T00:43:24.606Z,-23689.63
2022-09-05T00:45:36.040Z,-23691.69
2022-09-05T00:47:48.327Z,-23691.53
2022-09-05T00:49:59.908Z,-23691.84
2022-09-05T00:52:08.000Z,-23692.31
2022-09-05T00:54:40.253Z,-23690.41
2022-09-05T00:57:06.914Z,-23692.31
2022-09-05T00:59:58.620Z,-23691.34
2022-09-05T01:02:07.880Z,-23692.31
2022-09-05T01:04:24.649Z,-23692.16
2022-09-05T01:06:41.770Z,-23691.69
2022-09-05T01:09:09.748Z,-23692.63
2022-09-05T01:11:19.060Z,-23692.31
2022-09-05T01:13:36.901Z,-23691.06
2022-09-05T01:15:51.772Z,-23691.69
2022-09-05T01:18:14.441Z,-23690.41
2022-09-05T01:20:40.383Z,-23689.47
2022-09-05T01:23:06.487Z,-23686.94
2022-09-05T01:25:28.134Z,-23687.88
2022-09-05T01:29:13.054Z,-23686.94
2022-09-05T01:30:23.316Z,-23685.38
2022-09-05T01:32:42.801Z,-23684.41
2022-09-05T01:34:57.871Z,-23685.69
2022-09-05T01:37:08.467Z,-23685.69
2022-09-05T01:40:15.261Z,-23682.53
2022-09-05T01:42:29.287Z,-23684.41
2022-09-05T01:44:49.205Z,-23682.06
2022-09-05T01:47:00.019Z,-23682.69
2022-09-05T01:49:14.720Z,-23684.75
2022-09-05T01:51:31.704Z,-23685.22
2022-09-05T01:53:43.490Z,-23685.84
2022-09-05T01:56:12.008Z,-23683.78
2022-09-05T01:58:18.002Z,-23681.28
2022-09-05T02:00:25.297Z,-23677.66
2022-09-05T02:02:50.844Z,-23680.00
2022-09-05T02:05:09.715Z,-23680.66
2022-09-05T02:07:31.049Z,-23679.84
2022-09-05T02:09:42.863Z,-23680.66
2022-09-05T02:11:52.129Z,-23679.22
2022-09-05T02:14:00.702Z,-23677.19
2022-09-05T02:16:13.399Z,-23673.88
2022-09-05T02:18:21.587Z,-23674.03
2022-09-05T02:20:31.730Z,-23673.09
2022-09-05T02:22:43.121Z,-23673.72
2022-09-05T02:24:49.014Z,-23673.72
2022-09-05T02:27:12.495Z,-23672.91
2022-09-05T02:29:40.192Z,-23674.81
2022-09-05T02:31:48.169Z,-23675.75
2022-09-05T02:34:02.127Z,-23674.97
2022-09-05T02:36:11.359Z,-23673.56
2022-09-05T02:40:23.310Z,-23671.34
2022-09-05T02:45:13.700Z,-23671.50
2022-09-05T02:45:19.933Z,-23670.88
2022-09-05T02:45:57.267Z,-23669.13
2022-09-05T02:48:15.775Z,-23668.19
2022-09-05T02:54:42.880Z,-23667.56
2022-09-05T02:57:37.800Z,-23665.03
2022-09-05T02:57:46.181Z,-23665.19
2022-09-05T02:58:16.742Z,-23663.78
2022-09-05T03:00:22.502Z,-23663.78
2022-09-05T03:02:32.414Z,-23665.19
2022-09-05T03:04:44.104Z,-23664.25
2022-09-05T03:07:05.997Z,-23661.88
2022-09-05T03:09:25.037Z,-23660.47
2022-09-05T03:12:28.873Z,-23660.78
2022-09-05T03:15:23.007Z,-23661.25
2022-09-05T03:17:53.418Z,-23660.00
2022-09-05T03:20:39.305Z,-23657.47
2022-09-05T03:23:23.302Z,-23655.09
2022-09-05T03:25:59.052Z,-23654.00
2022-09-05T03:28:35.459Z,-23656.53
2022-09-05T03:30:50.054Z,-23658.56
2022-09-05T03:33:24.924Z,-23655.75
2022-09-05T03:36:16.543Z,-23657.00
2022-09-05T03:38:55.527Z,-23663.63
2022-09-05T03:41:11.448Z,-23661.88
2022-09-05T03:43:41.433Z,-23660.16
2022-09-05T03:46:00.853Z,-23659.69
2022-09-05T03:48:48.345Z,-23660.16
2022-09-05T03:57:07.577Z,-23657.78
2022-09-05T03:57:23.589Z,-23656.38
2022-09-05T03:57:25.814Z,-23657.31
2022-09-05T03:58:57.445Z,-23654.16
2022-09-05T04:01:17.582Z,-23655.91
2022-09-05T04:08:09.579Z,-23655.75
2022-09-05T04:08:19.116Z,-23657.31
2022-09-05T04:08:46.458Z,-23657.00
2022-09-05T04:10:56.466Z,-23656.69
2022-09-05T04:13:05.210Z,-23654.47
2022-09-05T04:15:17.451Z,-23655.09
2022-09-05T04:17:28.640Z,-23654.47
2022-09-05T04:19:36.383Z,-23656.06
2022-09-05T04:21:47.800Z,-23652.09
2022-09-05T04:24:03.087Z,-23651.47
2022-09-05T04:26:21.519Z,-23652.25
2022-09-05T04:28:48.635Z,-23653.69
2022-09-05T04:31:03.921Z,-23650.69
2022-09-05T04:33:16.509Z,-23651.94
2022-09-05T04:35:38.986Z,-23649.75
2022-09-05T04:37:55.245Z,-23652.59
2022-09-05T04:39:58.193Z,-23654.78
2022-09-05T04:42:14.487Z,-23656.69
2022-09-05T04:44:20.387Z,-23654.63
2022-09-05T04:46:27.241Z,-23653.06
2022-09-05T04:48:49.444Z,-23653.53
2022-09-05T04:51:11.625Z,-23654.78
2022-09-05T04:53:27.906Z,-23651.63
2022-09-05T04:55:33.379Z,-23651.31
2022-09-05T04:57:41.599Z,-23650.06
2022-09-05T05:05:08.987Z,-23652.59
2022-09-05T05:06:02.478Z,-23651.31
2022-09-05T05:06:11.399Z,-23651.94
2022-09-05T05:07:11.070Z,-23646.59
2022-09-05T05:09:21.735Z,-23648.47
2022-09-05T05:17:55.596Z,-23652.25
2022-09-05T05:18:00.115Z,-23653.84
2022-09-05T05:18:11.491Z,-23656.53
2022-09-05T05:19:17.011Z,-23664.88
2022-09-05T05:21:26.535Z,-23667.41
2022-09-05T05:23:37.117Z,-23664.72
2022-09-05T05:25:49.002Z,-23670.56
2022-09-05T05:28:08.919Z,-23665.81
2022-09-05T05:30:27.449Z,-23659.53
2022-09-05T05:32:45.571Z,-23662.84
2022-09-05T05:34:54.255Z,-23657.94
2022-09-05T05:37:07.004Z,-23660.63
2022-09-05T05:39:14.763Z,-23661.56
2022-09-05T05:41:25.338Z,-23662.34
2022-09-05T05:43:37.677Z,-23665.03
2022-09-05T05:45:40.483Z,-23664.88
2022-09-05T05:47:45.720Z,-23666.63
2022-09-05T05:50:05.556Z,-23663.94
2022-09-05T05:52:54.187Z,-23660.16
2022-09-05T05:55:08.093Z,-23662.53
2022-09-05T05:57:41.594Z,-23666.16
2022-09-05T06:00:01.871Z,-23671.97
2022-09-05T06:02:46.673Z,-23674.03
2022-09-05T06:05:21.096Z,-23669.78
2022-09-05T06:07:45.064Z,-23668.50
2022-09-05T06:14:51.799Z,-23672.28
2022-09-05T06:15:08.996Z,-23672.75
2022-09-05T06:16:41.249Z,-23673.22
2022-09-05T06:19:18.796Z,-23674.03
2022-09-05T06:22:06.353Z,-23670.56
2022-09-05T06:24:49.843Z,-23676.38
2022-09-05T06:27:13.357Z,-23678.44
2022-09-05T06:29:34.268Z,-23678.59
2022-09-05T06:31:59.118Z,-23683.78
2022-09-05T06:34:32.998Z,-23686.94
2022-09-05T06:36:53.111Z,-23689.16
2022-09-05T06:39:06.817Z,-23696.88
2022-09-05T06:41:26.685Z,-23704.28
2022-09-05T06:43:45.235Z,-23704.28
2022-09-05T06:46:15.736Z,-23711.66
2022-09-05T06:49:29.811Z,-23718.75
2022-09-05T06:51:34.679Z,-23726.00
2022-09-05T06:54:03.533Z,-23728.03
2022-09-05T06:56:44.690Z,-23730.72
2022-09-05T06:59:26.674Z,-23732.59
2022-09-05T07:01:53.842Z,-23737.00
2022-09-05T07:05:14.815Z,-23737.00
2022-09-05T07:07:06.470Z,-23737.31
2022-09-05T07:09:23.345Z,-23740.00
2022-09-05T07:11:41.964Z,-23745.19
2022-09-05T07:13:55.838Z,-23761.22
2022-09-05T07:16:06.852Z,-23775.34
2022-09-05T07:18:22.511Z,-23767.34
2022-09-05T07:20:34.094Z,-23776.00
2022-09-05T07:23:20.329Z,-23790.28
2022-09-05T07:25:37.605Z,-23795.00
2022-09-05T07:28:26.399Z,-23788.88
2022-09-05T07:30:08.703Z,-23793.25
2022-09-05T07:32:22.425Z,-23800.78
2022-09-05T07:34:30.560Z,-23809.59
2022-09-05T07:36:39.550Z,-23815.53
2022-09-05T07:38:52.386Z,-23817.91
2022-09-05T07:41:04.866Z,-23822.28
2022-09-05T07:43:10.823Z,-23828.25
2022-09-05T07:45:21.915Z,-23838.28
2022-09-05T07:47:28.996Z,-23837.97
2022-09-05T07:49:36.209Z,-23840.94
2022-09-05T07:56:49.543Z,-23862.88
2022-09-05T07:56:59.518Z,-23870.09
2022-09-05T07:57:22.229Z,-23865.84
2022-09-05T07:59:15.587Z,-23883.69
2022-09-05T08:01:22.370Z,-23911.22
2022-09-05T08:03:29.132Z,-23940.91
2022-09-05T08:05:42.296Z,-23948.56
2022-09-05T08:07:51.653Z,-23976.66
2022-09-05T08:10:08.613Z,-23978.53
2022-09-05T08:12:17.390Z,-23947.31
2022-09-05T08:14:46.096Z,-23934.34
2022-09-05T08:16:49.170Z,-23940.59
2022-09-05T08:19:01.971Z,-23942.94
2022-09-05T08:21:11.193Z,-23975.72
2022-09-05T08:23:25.642Z,-23965.72
2022-09-05T08:25:48.365Z,-23934.97
2022-09-05T08:28:07.466Z,-23934.81
2022-09-05T08:30:27.155Z,-23921.06
2022-09-05T08:32:41.474Z,-23899.81
2022-09-05T08:34:50.132Z,-23909.03
2022-09-05T08:36:56.884Z,-23931.84
2022-09-05T08:39:02.083Z,-23943.72
2022-09-05T08:41:13.933Z,-23949.50
2022-09-05T08:46:35.772Z,-23966.03
2022-09-05T08:46:39.568Z,-23998.47
2022-09-05T08:48:38.491Z,-24002.53
2022-09-05T08:50:56.984Z,-24019.81
2022-09-05T08:53:35.270Z,-24030.88
2022-09-05T08:55:45.490Z,-24036.78
2022-09-05T08:58:26.900Z,-24029.00
2022-09-05T09:00:35.975Z,-24044.09
2022-09-05T09:03:04.437Z,-24071.28
2022-09-05T09:05:19.400Z,-24119.88
2022-09-05T09:07:50.826Z,-24086.03
2022-09-05T09:10:04.055Z,-24060.41
2022-09-05T09:12:15.523Z,-24149.31
2022-09-05T09:14:33.711Z,-24152.88
2022-09-05T09:16:41.809Z,-24127.78
2022-09-05T09:19:04.704Z,-24127.78
2022-09-05T09:21:25.151Z,-24108.06
2022-09-05T09:23:46.220Z,-24127.31
2022-09-05T09:25:55.194Z,-24122.81
2022-09-05T09:28:50.277Z,-24200.81
2022-09-05T09:30:30.777Z,-24178.41
2022-09-05T09:32:41.478Z,-24194.94
2022-09-05T09:34:55.571Z,-24309.50
2022-09-05T09:37:16.803Z,-24289.03
2022-09-05T09:39:38.521Z,-24259.00
2022-09-05T09:41:59.613Z,-24295.81
2022-09-05T09:44:23.111Z,-24206.38
